BAW2064 FIMP-EGKK
Flight info
| Callsign | BAW2064 |
|---|---|
| Flight time | N/A |
| Altitude | 34000 |
| Route | OKMAR1 OKMAR UT665 AMBOD UA665 TSARA DCT DENLI/N0491F350 UN304 APKAK/N0488F360 UN304 DWA DCT XADOX DCT SETIT/N0482F380 UR780 ASM/N0484F370 G650 RASKA/N0483F380 T513 EGMEG/N0484F370 G660 JDW/N0483F380 L677 CVO L617 NOZ L551 GOMVA/N0478F400 L551 ANTAR DCT AKINA DCT BITLA DCT MAVAR DCT TUPUS DCT ADOMO DCT GIMIX DCT ERKIR DCT BABEG DCT LIRSU DCT ARCKY DCT SPI DCT DENUT L610 TEBRA |
| Aircraft | B772/H-SDE2E3FGHIJ5LORVWXY/LB1D1 |
Departure
| Time | 2026-05-05 03:50 |
|---|---|
| Airport | Sir Seewoosagur Ramgoolam International Airport (FIMP) |
Arrival
| Time | N/A |
|---|---|
| Airport | London Gatwick Airport (EGKK) |
| Time | Latitude | Longitude | Altitude | Speed | Heading |
|---|---|---|---|---|---|
| 2026-05-05 03:31 | -20.43160 | 57.67849 | 183 ft | 0 kts | 210° |
| 2026-05-05 03:40 | -20.43152 | 57.67853 | 183 ft | 2 kts | 209° |
| 2026-05-05 03:41 | -20.43138 | 57.67862 | 182 ft | 2 kts | 212° |
| 2026-05-05 03:41 | -20.43124 | 57.67872 | 182 ft | 2 kts | 215° |
| 2026-05-05 03:41 | -20.43111 | 57.67883 | 182 ft | 2 kts | 220° |
| 2026-05-05 03:41 | -20.43099 | 57.67895 | 182 ft | 2 kts | 234° |
| 2026-05-05 03:42 | -20.43093 | 57.67911 | 182 ft | 2 kts | 287° |
| 2026-05-05 03:42 | -20.43096 | 57.67919 | 182 ft | 0 kts | 300° |
| 2026-05-05 03:44 | -20.43096 | 57.67918 | 182 ft | 2 kts | 300° |
| 2026-05-05 03:45 | -20.43081 | 57.67891 | 182 ft | 4 kts | 299° |
| 2026-05-05 03:45 | -20.43063 | 57.67857 | 181 ft | 9 kts | 298° |
| 2026-05-05 03:45 | -20.43023 | 57.67776 | 181 ft | 13 kts | 297° |
| 2026-05-05 03:45 | -20.42982 | 57.67692 | 183 ft | 13 kts | 297° |
| 2026-05-05 03:46 | -20.42931 | 57.67637 | 183 ft | 10 kts | 328° |
| 2026-05-05 03:46 | -20.42831 | 57.67576 | 183 ft | 17 kts | 328° |
| 2026-05-05 03:46 | -20.42741 | 57.67509 | 202 ft | 14 kts | 325° |
| 2026-05-05 03:46 | -20.42653 | 57.67461 | 196 ft | 14 kts | 337° |
| 2026-05-05 03:47 | -20.42570 | 57.67414 | 195 ft | 13 kts | 315° |
| 2026-05-05 03:47 | -20.42525 | 57.67332 | 200 ft | 13 kts | 299° |
| 2026-05-05 03:47 | -20.42485 | 57.67248 | 193 ft | 13 kts | 296° |
| 2026-05-05 03:47 | -20.42440 | 57.67149 | 200 ft | 13 kts | 294° |
| 2026-05-05 03:48 | -20.42429 | 57.67057 | 186 ft | 13 kts | 266° |
| 2026-05-05 03:48 | -20.42422 | 57.66962 | 185 ft | 10 kts | 288° |
| 2026-05-05 03:48 | -20.42393 | 57.66921 | 200 ft | 5 kts | 332° |
| 2026-05-05 03:48 | -20.42358 | 57.66932 | 195 ft | 6 kts | 47° |
| 2026-05-05 03:49 | -20.42359 | 57.66973 | 192 ft | 5 kts | 110° |
| 2026-05-05 03:49 | -20.42366 | 57.66989 | 201 ft | 10 kts | 114° |
| 2026-05-05 03:49 | -20.42498 | 57.67270 | 198 ft | 82 kts | 117° |
| 2026-05-05 03:49 | -20.42876 | 57.68054 | 180 ft | 154 kts | 117° |
| 2026-05-05 03:50 | -20.43438 | 57.69227 | 479 ft | 187 kts | 118° |
| 2026-05-05 03:50 | -20.44029 | 57.70436 | 1488 ft | 178 kts | 117° |
| 2026-05-05 03:50 | -20.44626 | 57.71666 | 1988 ft | 197 kts | 117° |
| 2026-05-05 03:50 | -20.45283 | 57.73025 | 2243 ft | 215 kts | 117° |
| 2026-05-05 03:51 | -20.45976 | 57.74504 | 2494 ft | 229 kts | 111° |
| 2026-05-05 03:51 | -20.46158 | 57.76223 | 2823 ft | 245 kts | 80° |
| 2026-05-05 03:51 | -20.45375 | 57.77882 | 3200 ft | 262 kts | 47° |
| 2026-05-05 03:51 | -20.43922 | 57.79064 | 3825 ft | 267 kts | 36° |
| 2026-05-05 03:52 | -20.42354 | 57.80156 | 4486 ft | 268 kts | 36° |
| 2026-05-05 03:52 | -20.40779 | 57.81220 | 5139 ft | 269 kts | 30° |
| 2026-05-05 03:52 | -20.38938 | 57.81717 | 5581 ft | 283 kts | 358° |
| 2026-05-05 03:52 | -20.37050 | 57.81122 | 6199 ft | 286 kts | 334° |
| 2026-05-05 03:53 | -20.35299 | 57.80112 | 6668 ft | 293 kts | 333° |
| 2026-05-05 03:53 | -20.33514 | 57.79060 | 7333 ft | 292 kts | 332° |
| 2026-05-05 03:53 | -20.31730 | 57.78004 | 7941 ft | 295 kts | 332° |
| 2026-05-05 03:53 | -20.29931 | 57.76941 | 8569 ft | 297 kts | 332° |
| 2026-05-05 03:54 | -20.29568 | 57.76727 | 8676 ft | 298 kts | 332° |
| 2026-05-05 03:54 | -20.28645 | 57.76184 | 9002 ft | 298 kts | 332° |
| 2026-05-05 03:54 | -20.26829 | 57.75117 | 9664 ft | 299 kts | 332° |
| 2026-05-05 03:55 | -20.25000 | 57.74048 | 10238 ft | 300 kts | 332° |
| 2026-05-05 03:55 | -20.23159 | 57.72973 | 10730 ft | 304 kts | 332° |
| 2026-05-05 03:55 | -20.21291 | 57.71886 | 11188 ft | 309 kts | 332° |
| 2026-05-05 03:55 | -20.19399 | 57.70786 | 11543 ft | 318 kts | 332° |
| 2026-05-05 03:56 | -20.17436 | 57.69645 | 11918 ft | 325 kts | 332° |
| 2026-05-05 03:56 | -20.15423 | 57.68476 | 12302 ft | 333 kts | 332° |
| 2026-05-05 03:56 | -20.13366 | 57.67282 | 12677 ft | 341 kts | 332° |
| 2026-05-05 03:56 | -20.11262 | 57.66062 | 13066 ft | 348 kts | 332° |
| 2026-05-05 03:57 | -20.09110 | 57.64813 | 13454 ft | 356 kts | 331° |
| 2026-05-05 03:57 | -20.06911 | 57.63538 | 13847 ft | 364 kts | 331° |
| 2026-05-05 03:57 | -20.04659 | 57.62233 | 14151 ft | 373 kts | 331° |
| 2026-05-05 03:57 | -20.02346 | 57.60892 | 14454 ft | 383 kts | 331° |
| 2026-05-05 03:58 | -20.00000 | 57.59501 | 14764 ft | 390 kts | 328° |
| 2026-05-05 03:58 | -19.97754 | 57.57832 | 15067 ft | 398 kts | 322° |
| 2026-05-05 03:58 | -19.95573 | 57.55971 | 15388 ft | 406 kts | 320° |
| 2026-05-05 03:58 | -19.93391 | 57.54025 | 15770 ft | 412 kts | 319° |
| 2026-05-05 03:59 | -19.91188 | 57.52053 | 16214 ft | 415 kts | 319° |
| 2026-05-05 03:59 | -19.88956 | 57.50074 | 16618 ft | 420 kts | 320° |
| 2026-05-05 03:59 | -19.86690 | 57.48090 | 17008 ft | 424 kts | 320° |
| 2026-05-05 03:59 | -19.84393 | 57.46100 | 17428 ft | 427 kts | 320° |
| 2026-05-05 04:00 | -19.82079 | 57.44112 | 17914 ft | 429 kts | 320° |
| 2026-05-05 04:00 | -19.79747 | 57.42116 | 18333 ft | 432 kts | 320° |
| 2026-05-05 04:00 | -19.77399 | 57.40113 | 18722 ft | 433 kts | 320° |
| 2026-05-05 04:00 | -19.75042 | 57.38105 | 19082 ft | 436 kts | 320° |
| 2026-05-05 04:01 | -19.72697 | 57.36108 | 19420 ft | 438 kts | 320° |
| 2026-05-05 04:01 | -19.70316 | 57.34080 | 19844 ft | 439 kts | 320° |
| 2026-05-05 04:01 | -19.67932 | 57.32050 | 20274 ft | 439 kts | 320° |
| 2026-05-05 04:01 | -19.65547 | 57.30019 | 20685 ft | 440 kts | 320° |
| 2026-05-05 04:02 | -19.63157 | 57.27985 | 21051 ft | 442 kts | 320° |
| 2026-05-05 04:02 | -19.60754 | 57.25942 | 21424 ft | 444 kts | 320° |
| 2026-05-05 04:02 | -19.58339 | 57.23888 | 21749 ft | 446 kts | 320° |
| 2026-05-05 04:02 | -19.55913 | 57.21825 | 22098 ft | 448 kts | 319° |
| 2026-05-05 04:03 | -19.53472 | 57.19750 | 22452 ft | 450 kts | 319° |
| 2026-05-05 04:03 | -19.51019 | 57.17667 | 22802 ft | 452 kts | 319° |
| 2026-05-05 04:03 | -19.48558 | 57.15576 | 23137 ft | 454 kts | 320° |
| 2026-05-05 04:03 | -19.46083 | 57.13475 | 23459 ft | 457 kts | 319° |
| 2026-05-05 04:04 | -19.43597 | 57.11364 | 23710 ft | 460 kts | 319° |
| 2026-05-05 04:04 | -19.41087 | 57.09235 | 23892 ft | 464 kts | 320° |
| 2026-05-05 04:04 | -19.38558 | 57.07092 | 24074 ft | 468 kts | 320° |
| 2026-05-05 04:04 | -19.36016 | 57.04937 | 24389 ft | 468 kts | 319° |
| 2026-05-05 04:05 | -19.33478 | 57.02789 | 24751 ft | 466 kts | 319° |
| 2026-05-05 04:05 | -19.30940 | 57.00640 | 25052 ft | 467 kts | 319° |
| 2026-05-05 04:05 | -19.28425 | 56.98511 | 25298 ft | 469 kts | 319° |
| 2026-05-05 04:05 | -19.25868 | 56.96348 | 25534 ft | 471 kts | 319° |
| 2026-05-05 04:06 | -19.23270 | 56.94150 | 25798 ft | 473 kts | 319° |
| 2026-05-05 04:06 | -19.20732 | 56.92004 | 26071 ft | 474 kts | 319° |
| 2026-05-05 04:06 | -19.18156 | 56.89828 | 26335 ft | 475 kts | 319° |
| 2026-05-05 04:06 | -19.15570 | 56.87643 | 26597 ft | 476 kts | 319° |
| 2026-05-05 04:07 | -19.12975 | 56.85452 | 26839 ft | 478 kts | 319° |
| 2026-05-05 04:07 | -19.10372 | 56.83255 | 27064 ft | 480 kts | 319° |
| 2026-05-05 04:07 | -19.07761 | 56.81053 | 27347 ft | 480 kts | 318° |
| 2026-05-05 04:07 | -19.05144 | 56.78846 | 27615 ft | 481 kts | 318° |
| 2026-05-05 04:08 | -19.02524 | 56.76638 | 27853 ft | 483 kts | 318° |
| 2026-05-05 04:08 | -18.99896 | 56.74424 | 28062 ft | 484 kts | 318° |
| 2026-05-05 04:08 | -18.97258 | 56.72202 | 28314 ft | 485 kts | 318° |
| 2026-05-05 04:08 | -18.94614 | 56.69976 | 28542 ft | 486 kts | 318° |
| 2026-05-05 04:09 | -18.91966 | 56.67747 | 28758 ft | 488 kts | 318° |
| 2026-05-05 04:09 | -18.89308 | 56.65511 | 28962 ft | 489 kts | 317° |
| 2026-05-05 04:09 | -18.86642 | 56.63270 | 29146 ft | 490 kts | 317° |
| 2026-05-05 04:09 | -18.83970 | 56.61024 | 29354 ft | 491 kts | 317° |
| 2026-05-05 04:10 | -18.81294 | 56.58776 | 29566 ft | 492 kts | 317° |
| 2026-05-05 04:10 | -18.78614 | 56.56526 | 29769 ft | 492 kts | 317° |
| 2026-05-05 04:10 | -18.75927 | 56.54271 | 29952 ft | 493 kts | 317° |
| 2026-05-05 04:10 | -18.73238 | 56.52014 | 30104 ft | 494 kts | 317° |
| 2026-05-05 04:11 | -18.70544 | 56.49755 | 30234 ft | 495 kts | 317° |
| 2026-05-05 04:11 | -18.67843 | 56.47491 | 30409 ft | 495 kts | 317° |
| 2026-05-05 04:11 | -18.65147 | 56.45233 | 30634 ft | 494 kts | 317° |
| 2026-05-05 04:11 | -18.62461 | 56.42984 | 30865 ft | 492 kts | 317° |
| 2026-05-05 04:12 | -18.59784 | 56.40743 | 31101 ft | 491 kts | 317° |
| 2026-05-05 04:12 | -18.57106 | 56.38502 | 31326 ft | 490 kts | 317° |
| 2026-05-05 04:12 | -18.54435 | 56.36268 | 31530 ft | 489 kts | 317° |
| 2026-05-05 04:12 | -18.51773 | 56.34042 | 31758 ft | 488 kts | 317° |
| 2026-05-05 04:13 | -18.49112 | 56.31817 | 31990 ft | 488 kts | 317° |
| 2026-05-05 04:13 | -18.46456 | 56.29597 | 32212 ft | 487 kts | 317° |
| 2026-05-05 04:13 | -18.43843 | 56.27415 | 32433 ft | 486 kts | 317° |
| 2026-05-05 04:13 | -18.41194 | 56.25203 | 32657 ft | 485 kts | 317° |
| 2026-05-05 04:14 | -18.38554 | 56.22999 | 32860 ft | 484 kts | 317° |
| 2026-05-05 04:14 | -18.35915 | 56.20797 | 33073 ft | 484 kts | 317° |
| 2026-05-05 04:14 | -18.33283 | 56.18602 | 33307 ft | 483 kts | 317° |
| 2026-05-05 04:14 | -18.30652 | 56.16409 | 33533 ft | 482 kts | 317° |
| 2026-05-05 04:15 | -18.28026 | 56.14220 | 33748 ft | 481 kts | 317° |
| 2026-05-05 04:15 | -18.25407 | 56.12037 | 33943 ft | 481 kts | 317° |
| 2026-05-05 04:15 | -18.20142 | 56.07657 | 34053 ft | 483 kts | 318° |
| 2026-05-05 04:16 | -18.14628 | 56.03588 | 34049 ft | 484 kts | 322° |
| 2026-05-05 04:16 | -18.08989 | 55.99742 | 34050 ft | 482 kts | 323° |
| 2026-05-05 04:17 | -18.03393 | 55.95891 | 34045 ft | 480 kts | 322° |
| 2026-05-05 04:17 | -17.97833 | 55.92005 | 34050 ft | 480 kts | 322° |
| 2026-05-05 04:18 | -17.92283 | 55.88108 | 34052 ft | 480 kts | 322° |
| 2026-05-05 04:18 | -17.86718 | 55.84205 | 34056 ft | 481 kts | 322° |
| 2026-05-05 04:19 | -17.81137 | 55.80296 | 34055 ft | 483 kts | 322° |
| 2026-05-05 04:19 | -17.75537 | 55.76379 | 34046 ft | 484 kts | 322° |
| 2026-05-05 04:20 | -17.69922 | 55.72455 | 34042 ft | 486 kts | 323° |
| 2026-05-05 04:20 | -17.64290 | 55.68522 | 34047 ft | 487 kts | 323° |
| 2026-05-05 04:21 | -17.59600 | 55.65248 | 34052 ft | 487 kts | 323° |
| 2026-05-05 04:21 | -17.53952 | 55.61308 | 34043 ft | 488 kts | 323° |
| 2026-05-05 04:22 | -17.48300 | 55.57368 | 34048 ft | 488 kts | 323° |
| 2026-05-05 04:22 | -17.42654 | 55.53415 | 34045 ft | 487 kts | 323° |
| 2026-05-05 04:23 | -17.37020 | 55.49455 | 34046 ft | 487 kts | 323° |
| 2026-05-05 04:23 | -17.31377 | 55.45527 | 34044 ft | 487 kts | 323° |
| 2026-05-05 04:24 | -17.25773 | 55.41642 | 34039 ft | 486 kts | 323° |
| 2026-05-05 04:25 | -17.17322 | 55.35783 | 34043 ft | 485 kts | 323° |
| 2026-05-05 04:25 | -17.11696 | 55.31881 | 34040 ft | 485 kts | 323° |
| 2026-05-05 04:26 | -17.06072 | 55.27983 | 34040 ft | 485 kts | 323° |
| 2026-05-05 04:26 | -17.00452 | 55.24091 | 34042 ft | 484 kts | 323° |
| 2026-05-05 04:27 | -16.94832 | 55.20203 | 34039 ft | 484 kts | 323° |
| 2026-05-05 04:27 | -16.89207 | 55.16314 | 34038 ft | 484 kts | 324° |
| 2026-05-05 04:28 | -16.83587 | 55.12431 | 34037 ft | 484 kts | 324° |
| 2026-05-05 04:28 | -16.77964 | 55.08548 | 34037 ft | 484 kts | 324° |
| 2026-05-05 04:29 | -16.72343 | 55.04670 | 34035 ft | 484 kts | 324° |
| 2026-05-05 04:29 | -16.66718 | 55.00792 | 34033 ft | 484 kts | 324° |
| 2026-05-05 04:30 | -16.61129 | 54.96942 | 34037 ft | 484 kts | 324° |
| 2026-05-05 04:30 | -16.55509 | 54.93072 | 34034 ft | 484 kts | 324° |
| 2026-05-05 04:31 | -16.49882 | 54.89201 | 34034 ft | 484 kts | 324° |
| 2026-05-05 04:31 | -16.44257 | 54.85334 | 34032 ft | 484 kts | 324° |
| 2026-05-05 04:32 | -16.38634 | 54.81471 | 34032 ft | 484 kts | 324° |
| 2026-05-05 04:32 | -16.33005 | 54.77606 | 34033 ft | 484 kts | 324° |
| 2026-05-05 04:33 | -16.27380 | 54.73747 | 34031 ft | 484 kts | 324° |
| 2026-05-05 04:33 | -16.21758 | 54.69893 | 34028 ft | 484 kts | 324° |
| 2026-05-05 04:34 | -16.16140 | 54.66044 | 34025 ft | 483 kts | 324° |
| 2026-05-05 04:34 | -16.10529 | 54.62202 | 34026 ft | 483 kts | 324° |
| 2026-05-05 04:35 | -16.04913 | 54.58359 | 34039 ft | 483 kts | 324° |
| 2026-05-05 04:35 | -15.99305 | 54.54523 | 34022 ft | 482 kts | 324° |
| 2026-05-05 04:36 | -15.93697 | 54.50693 | 34020 ft | 482 kts | 324° |
| 2026-05-05 04:36 | -15.88094 | 54.46874 | 34030 ft | 481 kts | 325° |
| 2026-05-05 04:37 | -15.82497 | 54.43060 | 34032 ft | 481 kts | 325° |
| 2026-05-05 04:37 | -15.76905 | 54.39249 | 34027 ft | 481 kts | 325° |
| 2026-05-05 04:38 | -15.71314 | 54.35443 | 34025 ft | 480 kts | 325° |
| 2026-05-05 04:38 | -15.65729 | 54.31642 | 34025 ft | 480 kts | 325° |
| 2026-05-05 04:39 | -15.60142 | 54.27844 | 34022 ft | 479 kts | 325° |
| 2026-05-05 04:39 | -15.54566 | 54.24055 | 34021 ft | 479 kts | 325° |
| 2026-05-05 04:40 | -15.49030 | 54.20295 | 34019 ft | 479 kts | 325° |
| 2026-05-05 04:40 | -15.43456 | 54.16512 | 34020 ft | 478 kts | 325° |
| 2026-05-05 04:41 | -15.37887 | 54.12735 | 34019 ft | 478 kts | 325° |
| 2026-05-05 04:41 | -15.32326 | 54.08966 | 34022 ft | 478 kts | 325° |
| 2026-05-05 04:42 | -15.26762 | 54.05197 | 34020 ft | 477 kts | 325° |
| 2026-05-05 04:42 | -15.21200 | 54.01432 | 34021 ft | 477 kts | 325° |
| 2026-05-05 04:43 | -15.15644 | 53.97674 | 34019 ft | 477 kts | 325° |
| 2026-05-05 04:43 | -15.10088 | 53.93917 | 34021 ft | 477 kts | 325° |
| 2026-05-05 04:44 | -15.04521 | 53.90155 | 34014 ft | 479 kts | 324° |
| 2026-05-05 04:44 | -14.98937 | 53.86384 | 34020 ft | 480 kts | 324° |
| 2026-05-05 04:45 | -14.93337 | 53.82608 | 34020 ft | 481 kts | 324° |
| 2026-05-05 04:45 | -14.87713 | 53.78819 | 34021 ft | 483 kts | 324° |
| 2026-05-05 04:46 | -14.82119 | 53.75051 | 34017 ft | 484 kts | 324° |
| 2026-05-05 04:46 | -14.76476 | 53.71251 | 34015 ft | 484 kts | 324° |
| 2026-05-05 04:47 | -14.70830 | 53.67452 | 34017 ft | 484 kts | 324° |
| 2026-05-05 04:47 | -14.65178 | 53.63651 | 34012 ft | 484 kts | 324° |
| 2026-05-05 04:48 | -14.59527 | 53.59853 | 34012 ft | 484 kts | 324° |
| 2026-05-05 04:48 | -14.53884 | 53.56063 | 34013 ft | 484 kts | 324° |
| 2026-05-05 04:49 | -14.48244 | 53.52277 | 34025 ft | 483 kts | 324° |
| 2026-05-05 04:49 | -14.42603 | 53.48493 | 34024 ft | 483 kts | 324° |
| 2026-05-05 04:50 | -14.36975 | 53.44720 | 34007 ft | 482 kts | 324° |
| 2026-05-05 04:50 | -14.31357 | 53.40955 | 34004 ft | 482 kts | 324° |
| 2026-05-05 04:51 | -14.25738 | 53.37193 | 34017 ft | 481 kts | 325° |
| 2026-05-05 04:51 | -14.20124 | 53.33436 | 34022 ft | 481 kts | 324° |
| 2026-05-05 04:52 | -14.14505 | 53.29678 | 34020 ft | 481 kts | 325° |
| 2026-05-05 04:52 | -14.08895 | 53.25928 | 34003 ft | 481 kts | 325° |
| 2026-05-05 04:53 | -14.03272 | 53.22171 | 34013 ft | 481 kts | 325° |
| 2026-05-05 04:53 | -13.97686 | 53.18442 | 34016 ft | 481 kts | 325° |
| 2026-05-05 04:54 | -13.92027 | 53.14666 | 34011 ft | 482 kts | 325° |
| 2026-05-05 04:54 | -13.86435 | 53.10938 | 34013 ft | 482 kts | 325° |
| 2026-05-05 04:55 | -13.80808 | 53.07187 | 34009 ft | 482 kts | 325° |
| 2026-05-05 04:55 | -13.75177 | 53.03437 | 34012 ft | 482 kts | 325° |
| 2026-05-05 04:56 | -13.69541 | 52.99685 | 34012 ft | 482 kts | 325° |
| 2026-05-05 04:56 | -13.63903 | 52.95934 | 34012 ft | 482 kts | 325° |
| 2026-05-05 04:57 | -13.58266 | 52.92187 | 34008 ft | 483 kts | 325° |
| 2026-05-05 04:57 | -13.52628 | 52.88440 | 34009 ft | 483 kts | 325° |
| 2026-05-05 04:58 | -13.47905 | 52.85303 | 34006 ft | 483 kts | 325° |